Time;durP1;ratioP1;P1;durP2;ratioP2;P2;SDS_P1;SDS_P2;PMS_P1;PMS_P2;Temp;Humidity;BMP_temperature;BMP_pressure;BME280_temperature;BME280_humidity;BME280_pressure;Samples;Min_cycle;Max_cycle;Signal;HPM_P1;HPM_P2
2023/02/02 00:00:49;;;;;;;8.10;2.57;;;4.30;99.90;;;;;;5024481;28;20044;-83
2023/02/02 00:03:15;;;;;;;10.73;2.77;;;4.30;99.90;;;;;;5024490;28;20033;-82
2023/02/02 00:05:45;;;;;;;6.00;1.90;;;4.30;99.90;;;;;;5024589;28;20030;-82
2023/02/02 00:08:11;;;;;;;10.10;2.20;;;4.30;99.90;;;;;;5039363;28;20048;-83
2023/02/02 00:10:37;;;;;;;12.50;2.20;;;4.30;99.90;;;;;;5023638;28;20031;-83
2023/02/02 00:13:02;;;;;;;9.57;2.20;;;4.30;99.90;;;;;;5024253;28;20108;-83
2023/02/02 00:15:28;;;;;;;13.30;2.93;;;4.30;99.90;;;;;;5024052;28;20037;-83
2023/02/02 00:17:53;;;;;;;7.73;2.10;;;4.30;99.90;;;;;;5023474;28;20033;-83
2023/02/02 00:20:21;;;;;;;11.77;2.83;;;4.40;99.90;;;;;;5023671;28;20029;-83
2023/02/02 00:22:46;;;;;;;8.40;2.10;;;4.40;99.90;;;;;;5023316;28;20064;-83
2023/02/02 00:25:12;;;;;;;9.00;2.43;;;4.30;99.90;;;;;;5024033;28;20036;-82
2023/02/02 00:27:38;;;;;;;9.67;2.87;;;4.30;99.90;;;;;;5025975;28;20132;-82
2023/02/02 00:30:04;;;;;;;12.57;2.70;;;4.30;99.90;;;;;;5027530;28;20872;-82
2023/02/02 00:32:30;;;;;;;11.40;2.63;;;4.20;99.90;;;;;;5027669;28;20065;-83
2023/02/02 00:34:55;;;;;;;6.47;1.70;;;4.20;99.90;;;;;;5027307;28;20116;-83
2023/02/02 00:37:21;;;;;;;13.53;2.87;;;4.20;99.90;;;;;;5027181;28;20053;-83
2023/02/02 00:39:46;;;;;;;10.70;2.30;;;4.20;99.90;;;;;;5027562;28;20037;-83
2023/02/02 00:42:12;;;;;;;13.97;2.67;;;4.10;99.90;;;;;;5027261;28;20029;-83
2023/02/02 00:47:22;;;;;;;8.73;2.20;;;4.10;99.90;;;;;;5026567;28;20183;-83
2023/02/02 00:49:47;;;;;;;11.43;2.50;;;4.10;99.90;;;;;;5026808;28;20013;-83
2023/02/02 00:52:13;;;;;;;14.37;2.50;;;4.00;99.90;;;;;;5027145;28;20033;-83
2023/02/02 00:54:39;;;;;;;14.00;2.73;;;3.90;99.90;;;;;;5025723;28;20021;-83
2023/02/02 00:57:05;;;;;;;9.30;2.20;;;4.00;99.90;;;;;;5027215;28;20025;-83
2023/02/02 00:59:31;;;;;;;12.03;2.93;;;3.90;99.90;;;;;;5024847;28;20112;-83
2023/02/02 01:01:57;;;;;;;7.90;2.67;;;3.90;99.90;;;;;;5026517;28;20039;-83
2023/02/02 01:04:23;;;;;;;8.70;2.20;;;3.90;99.90;;;;;;5026072;28;20040;-83
2023/02/02 01:06:48;;;;;;;10.53;2.83;;;3.80;99.90;;;;;;5026942;28;20083;-83
2023/02/02 01:09:14;;;;;;;10.00;2.57;;;3.90;99.90;;;;;;5026204;28;20049;-83
2023/02/02 01:11:39;;;;;;;11.20;2.50;;;3.80;99.90;;;;;;5025489;28;20036;-83
2023/02/02 01:14:05;;;;;;;10.17;2.77;;;3.80;99.90;;;;;;5024964;28;20028;-83
2023/02/02 01:16:31;;;;;;;6.50;2.50;;;3.80;99.90;;;;;;5025735;28;20330;-83
2023/02/02 01:18:56;;;;;;;9.73;2.40;;;3.80;99.90;;;;;;5025736;28;20026;-83
2023/02/02 01:21:22;;;;;;;10.60;2.30;;;3.80;99.90;;;;;;5024628;28;20018;-83
2023/02/02 01:23:48;;;;;;;8.67;2.10;;;3.80;99.90;;;;;;5023947;28;20041;-83
2023/02/02 01:26:15;;;;;;;8.30;2.13;;;3.80;99.90;;;;;;5025001;28;20441;-83
2023/02/02 01:28:40;;;;;;;10.97;2.33;;;3.80;99.90;;;;;;5025178;28;20034;-83
2023/02/02 01:31:12;;;;;;;7.50;2.10;;;3.80;99.90;;;;;;5024430;28;20045;-83
2023/02/02 01:33:38;;;;;;;11.00;2.30;;;3.80;99.90;;;;;;5025801;28;20029;-83
2023/02/02 01:36:10;;;;;;;8.10;2.40;;;3.80;99.90;;;;;;5024516;28;20060;-83
2023/02/02 01:38:36;;;;;;;11.07;2.33;;;3.90;99.90;;;;;;5025850;28;20021;-83
2023/02/02 01:41:03;;;;;;;11.40;2.53;;;3.90;99.90;;;;;;5025878;28;20022;-83
2023/02/02 01:43:48;;;;;;;9.93;2.27;;;3.90;99.90;;;;;;5026298;28;20037;-84
2023/02/02 01:46:13;;;;;;;13.17;2.83;;;3.90;99.90;;;;;;5025051;28;20014;-83
2023/02/02 01:48:42;;;;;;;11.30;2.23;;;3.90;99.90;;;;;;5026507;28;20316;-83
2023/02/02 01:51:12;;;;;;;10.20;2.20;;;3.90;99.90;;;;;;5024572;28;20021;-83
2023/02/02 01:53:39;;;;;;;10.40;3.10;;;4.00;99.90;;;;;;5026083;28;20025;-83
2023/02/02 01:56:06;;;;;;;8.17;2.20;;;4.10;99.90;;;;;;5026621;28;20034;-83
2023/02/02 01:58:38;;;;;;;10.57;2.47;;;4.00;99.90;;;;;;5025490;28;20035;-82
2023/02/02 02:01:05;;;;;;;10.40;2.27;;;4.00;99.90;;;;;;5026270;28;20064;-83
2023/02/02 02:03:34;;;;;;;6.37;2.20;;;4.00;99.90;;;;;;5026515;28;20136;-83
2023/02/02 02:06:06;;;;;;;10.50;2.50;;;4.00;99.90;;;;;;5025877;28;20032;-83
2023/02/02 02:09:11;;;;;;;8.97;2.20;;;4.00;99.90;;;;;;5025889;28;20064;-83
2023/02/02 02:11:37;;;;;;;10.00;2.37;;;4.00;99.90;;;;;;5022114;28;20059;-83
2023/02/02 02:17:05;;;;;;;7.73;1.90;;;4.00;99.90;;;;;;5025513;28;20560;-83
2023/02/02 02:29:09;;;;;;;12.30;2.77;;;4.00;99.90;;;;;;5030328;28;20041;-83
2023/02/02 02:31:54;;;;;;;13.73;2.47;;;4.00;99.90;;;;;;5030253;28;20568;-83
2023/02/02 02:34:27;;;;;;;9.37;2.47;;;3.90;99.90;;;;;;5030768;28;20025;-83
2023/02/02 02:37:08;;;;;;;14.40;2.30;;;3.90;99.90;;;;;;5030259;28;20029;-83
2023/02/02 02:39:48;;;;;;;8.80;2.17;;;4.00;99.90;;;;;;5028685;28;20080;-83
2023/02/02 02:42:19;;;;;;;10.43;2.23;;;4.00;99.90;;;;;;5026843;28;20573;-83
2023/02/02 02:44:47;;;;;;;9.40;2.83;;;4.10;99.90;;;;;;5026114;28;20427;-83
2023/02/02 02:47:12;;;;;;;11.00;2.47;;;4.00;99.90;;;;;;5024130;28;20033;-83
2023/02/02 02:49:42;;;;;;;14.47;2.47;;;3.90;99.90;;;;;;5023735;28;20026;-82
2023/02/02 02:52:08;;;;;;;11.37;2.50;;;3.90;99.90;;;;;;5024635;28;20048;-82
2023/02/02 02:54:48;;;;;;;9.33;2.30;;;4.00;99.90;;;;;;5024942;28;20021;-82
2023/02/02 02:57:35;;;;;;;11.37;2.47;;;4.00;99.90;;;;;;5024923;28;20426;-82
2023/02/02 03:00:12;;;;;;;9.57;2.33;;;4.00;99.90;;;;;;5024463;28;20021;-82
2023/02/02 03:02:50;;;;;;;9.03;2.70;;;4.00;99.90;;;;;;5024685;28;20036;-82
2023/02/02 03:05:24;;;;;;;11.70;2.73;;;4.00;99.90;;;;;;5024037;28;20056;-82
2023/02/02 03:08:14;;;;;;;11.27;2.47;;;4.10;99.90;;;;;;5039094;28;20508;-82
2023/02/02 03:10:42;;;;;;;10.30;2.10;;;4.10;99.90;;;;;;5000828;28;21524;-83
2023/02/02 03:13:10;;;;;;;10.27;2.20;;;4.10;99.90;;;;;;5024487;28;20032;-83
2023/02/02 03:15:40;;;;;;;12.27;3.23;;;4.00;99.90;;;;;;5023284;28;20052;-83
2023/02/02 03:18:05;;;;;;;13.93;2.93;;;4.10;99.90;;;;;;5024481;28;20025;-82
2023/02/02 03:20:31;;;;;;;12.20;3.17;;;4.10;99.90;;;;;;5024071;28;20680;-82
2023/02/02 03:22:57;;;;;;;13.40;2.67;;;4.00;99.90;;;;;;5022821;28;20056;-83
2023/02/02 03:25:25;;;;;;;12.10;2.60;;;4.10;99.90;;;;;;5024482;28;20045;-83
2023/02/02 03:27:51;;;;;;;18.07;3.80;;;4.10;99.90;;;;;;5023507;28;20177;-83
2023/02/02 03:30:17;;;;;;;11.30;2.70;;;4.00;99.90;;;;;;5024099;28;20020;-83
2023/02/02 03:32:44;;;;;;;12.67;3.33;;;3.90;99.90;;;;;;5022516;28;20026;-84
2023/02/02 03:35:09;;;;;;;6.83;2.30;;;3.80;99.90;;;;;;5024767;28;20032;-83
2023/02/02 03:37:35;;;;;;;12.20;2.83;;;3.80;99.90;;;;;;5022902;28;20413;-83
2023/02/02 03:40:00;;;;;;;13.73;3.00;;;3.70;99.90;;;;;;5023743;28;20026;-83
2023/02/02 03:42:26;;;;;;;14.27;2.90;;;3.70;99.90;;;;;;5023213;28;20025;-82
2023/02/02 03:44:51;;;;;;;12.20;2.37;;;3.70;99.90;;;;;;5024232;28;20033;-83
2023/02/02 03:47:17;;;;;;;14.03;2.30;;;3.80;99.90;;;;;;5023886;28;20109;-83
2023/02/02 03:49:43;;;;;;;13.23;3.03;;;3.80;99.90;;;;;;5024136;28;20144;-83
2023/02/02 03:52:08;;;;;;;10.13;2.20;;;3.80;99.90;;;;;;5023784;28;20034;-83
2023/02/02 03:54:34;;;;;;;9.50;2.93;;;3.80;99.90;;;;;;5024185;28;20087;-83
2023/02/02 03:56:59;;;;;;;10.27;2.10;;;3.80;99.90;;;;;;5023857;28;20029;-82
2023/02/02 03:59:25;;;;;;;12.90;2.30;;;3.90;99.90;;;;;;5024356;28;20033;-83
2023/02/02 04:01:50;;;;;;;7.77;2.43;;;3.90;99.90;;;;;;5028537;28;20025;-83
2023/02/02 04:04:16;;;;;;;7.97;2.13;;;4.00;99.90;;;;;;5026319;28;20721;-83
2023/02/02 04:06:41;;;;;;;8.57;2.43;;;4.00;99.90;;;;;;5027581;28;20056;-82
2023/02/02 04:09:07;;;;;;;8.83;2.77;;;3.90;99.90;;;;;;5026052;28;20060;-83
2023/02/02 04:11:32;;;;;;;11.00;2.43;;;4.00;99.90;;;;;;5027762;28;20022;-82
2023/02/02 04:13:58;;;;;;;8.23;2.63;;;4.00;99.90;;;;;;5027519;28;20029;-83
2023/02/02 04:16:24;;;;;;;11.37;3.73;;;4.00;99.90;;;;;;5027595;28;20124;-83
2023/02/02 04:18:49;;;;;;;6.43;2.07;;;4.00;99.90;;;;;;5025979;28;20026;-83
2023/02/02 04:21:15;;;;;;;12.23;2.37;;;4.10;99.90;;;;;;5027501;28;20025;-82
2023/02/02 04:23:41;;;;;;;8.23;2.53;;;4.10;99.90;;;;;;5027333;28;20040;-82
2023/02/02 04:26:06;;;;;;;9.40;2.20;;;4.10;99.90;;;;;;5027208;28;20072;-83
2023/02/02 04:28:32;;;;;;;9.30;2.50;;;4.10;99.90;;;;;;5027069;28;20025;-83
2023/02/02 04:30:58;;;;;;;11.80;2.40;;;4.00;99.90;;;;;;5027573;28;20037;-83
2023/02/02 04:33:25;;;;;;;8.33;1.93;;;4.10;99.90;;;;;;5027866;28;20032;-83
2023/02/02 04:35:51;;;;;;;13.93;2.93;;;4.00;99.90;;;;;;5027506;28;20624;-83
2023/02/02 04:38:16;;;;;;;7.93;1.80;;;4.00;99.90;;;;;;5026935;28;20116;-83
2023/02/02 04:40:44;;;;;;;12.47;2.90;;;4.00;99.90;;;;;;5025982;28;20027;-83
2023/02/02 04:43:10;;;;;;;9.47;2.40;;;4.10;99.90;;;;;;5027425;28;20049;-83
2023/02/02 04:45:35;;;;;;;11.37;2.80;;;4.10;99.90;;;;;;5026907;28;20028;-83
2023/02/02 04:48:01;;;;;;;13.00;2.53;;;4.20;99.90;;;;;;5025416;28;20853;-83
2023/02/02 04:50:27;;;;;;;9.30;2.70;;;4.20;99.90;;;;;;5025915;28;20033;-83
2023/02/02 04:52:53;;;;;;;9.30;2.40;;;4.10;99.90;;;;;;5027728;28;20060;-82
2023/02/02 04:55:18;;;;;;;12.67;2.10;;;4.10;99.90;;;;;;5026520;28;20475;-83
2023/02/02 04:57:44;;;;;;;9.90;2.73;;;4.20;99.90;;;;;;5026694;28;21450;-82
2023/02/02 05:00:11;;;;;;;9.03;2.40;;;4.20;99.90;;;;;;5026539;28;20471;-82
2023/02/02 05:02:38;;;;;;;9.17;1.77;;;4.20;99.90;;;;;;5026798;28;20776;-83
2023/02/02 05:05:05;;;;;;;10.73;2.23;;;4.20;99.90;;;;;;5025502;28;20032;-83
2023/02/02 05:07:31;;;;;;;13.13;2.50;;;4.20;99.90;;;;;;5025008;28;20470;-82
2023/02/02 05:09:57;;;;;;;9.53;3.40;;;4.30;99.90;;;;;;5031691;28;20053;-83
2023/02/02 05:12:23;;;;;;;15.70;4.43;;;4.30;99.90;;;;;;5023870;28;20125;-83
2023/02/02 05:14:48;;;;;;;9.27;2.33;;;4.30;99.90;;;;;;5024971;28;20132;-83
2023/02/02 05:17:14;;;;;;;8.73;2.30;;;4.20;99.90;;;;;;5026544;28;20490;-83
2023/02/02 05:19:40;;;;;;;12.73;2.70;;;4.30;99.90;;;;;;5025918;28;20104;-82
2023/02/02 05:22:06;;;;;;;8.80;2.20;;;4.30;99.90;;;;;;5024443;28;20082;-83
2023/02/02 05:24:31;;;;;;;6.40;2.00;;;4.30;99.90;;;;;;5024913;28;20033;-83
2023/02/02 05:26:59;;;;;;;9.30;2.60;;;4.30;99.90;;;;;;5024645;28;20029;-84
2023/02/02 05:29:29;;;;;;;8.10;2.23;;;4.20;99.90;;;;;;5032604;28;20134;-78
2023/02/02 05:31:55;;;;;;;7.03;2.07;;;4.20;99.90;;;;;;5051094;28;20021;-78
2023/02/02 05:34:22;;;;;;;6.17;2.13;;;4.30;99.90;;;;;;5053984;28;20541;-79
2023/02/02 05:36:48;;;;;;;8.47;2.47;;;4.30;99.90;;;;;;5038257;28;20497;-79
2023/02/02 05:39:13;;;;;;;7.13;2.07;;;4.30;99.90;;;;;;5043172;28;20021;-78
2023/02/02 05:41:40;;;;;;;6.50;1.83;;;4.20;99.90;;;;;;5054263;28;20029;-78
2023/02/02 05:44:05;;;;;;;10.70;2.30;;;4.30;99.90;;;;;;5055542;28;20112;-78
2023/02/02 05:46:31;;;;;;;9.27;2.20;;;4.30;99.90;;;;;;5048570;28;20104;-78
2023/02/02 05:49:03;;;;;;;7.13;2.47;;;4.30;99.90;;;;;;5055401;28;20027;-78
2023/02/02 05:51:32;;;;;;;8.07;2.00;;;4.20;99.90;;;;;;5041145;28;20041;-79
2023/02/02 05:53:57;;;;;;;11.87;2.40;;;4.20;99.90;;;;;;5053675;28;20028;-78
2023/02/02 05:56:23;;;;;;;7.80;2.40;;;4.20;99.90;;;;;;5042022;28;20029;-78
2023/02/02 05:58:51;;;;;;;8.63;2.20;;;4.20;99.90;;;;;;5038894;28;20083;-78
2023/02/02 06:01:17;;;;;;;11.60;1.97;;;4.30;99.90;;;;;;5050981;28;20056;-78
2023/02/02 06:03:43;;;;;;;6.80;2.10;;;4.30;99.90;;;;;;5044911;28;20113;-79
2023/02/02 06:06:09;;;;;;;8.93;2.00;;;4.30;99.90;;;;;;5044566;28;20112;-78
2023/02/02 06:08:35;;;;;;;8.47;2.20;;;4.40;99.90;;;;;;5048599;28;20094;-78
2023/02/02 06:11:11;;;;;;;7.33;1.70;;;4.40;99.90;;;;;;5042318;28;20022;-79
2023/02/02 06:13:37;;;;;;;6.83;2.03;;;4.50;99.90;;;;;;5041384;28;20022;-78
2023/02/02 06:16:03;;;;;;;8.60;2.20;;;4.50;99.90;;;;;;5042821;28;20025;-85
2023/02/02 06:18:29;;;;;;;5.63;2.10;;;4.50;99.90;;;;;;5037087;28;20021;-79
2023/02/02 06:21:02;;;;;;;7.40;2.20;;;4.50;99.90;;;;;;5042298;28;20100;-79
2023/02/02 06:23:28;;;;;;;6.00;1.80;;;4.40;99.90;;;;;;5031743;28;20025;-83
2023/02/02 06:25:54;;;;;;;7.40;1.87;;;4.30;99.90;;;;;;5037106;28;20078;-89
2023/02/02 06:28:20;;;;;;;6.77;1.60;;;4.40;99.90;;;;;;5039424;28;20029;-89
2023/02/02 06:30:46;;;;;;;9.33;1.90;;;4.40;99.90;;;;;;5040007;28;20069;-79
2023/02/02 06:33:12;;;;;;;9.77;2.00;;;4.40;99.90;;;;;;5040606;28;20048;-78
2023/02/02 06:35:37;;;;;;;7.73;2.23;;;4.40;99.90;;;;;;5041442;28;20071;-80
2023/02/02 06:38:03;;;;;;;4.63;1.87;;;4.40;99.90;;;;;;5041801;28;20080;-80
2023/02/02 06:40:31;;;;;;;7.63;1.90;;;4.40;99.90;;;;;;5039596;28;20092;-79
2023/02/02 06:43:02;;;;;;;8.60;1.73;;;4.40;99.90;;;;;;5039220;28;20020;-80
2023/02/02 06:45:31;;;;;;;5.50;1.60;;;4.30;99.90;;;;;;5036797;28;20086;-79
2023/02/02 06:48:07;;;;;;;6.73;1.90;;;4.20;99.90;;;;;;5039353;28;20104;-79
2023/02/02 06:50:35;;;;;;;8.93;2.03;;;4.30;99.90;;;;;;5040855;28;20103;-80
2023/02/02 06:53:00;;;;;;;3.90;1.70;;;4.20;99.90;;;;;;5039908;28;20108;-80
2023/02/02 06:55:26;;;;;;;7.63;2.33;;;4.20;99.90;;;;;;5039390;28;21219;-76
2023/02/02 06:58:01;;;;;;;6.20;2.00;;;4.20;99.90;;;;;;5041366;28;20021;-79
2023/02/02 07:00:31;;;;;;;7.70;2.15;;;4.20;99.90;;;;;;5040621;28;20343;-80
2023/02/02 07:02:56;;;;;;;8.83;1.90;;;4.20;99.90;;;;;;5041974;28;20119;-79
2023/02/02 07:05:27;;;;;;;6.70;1.90;;;4.20;99.90;;;;;;5040844;28;20092;-79
2023/02/02 07:07:52;;;;;;;7.57;2.30;;;4.30;99.90;;;;;;5035047;28;20439;-81
2023/02/02 07:10:25;;;;;;;7.93;2.10;;;4.30;99.90;;;;;;5039796;28;20445;-89
2023/02/02 07:12:55;;;;;;;6.20;1.60;;;4.30;99.90;;;;;;5036479;28;20025;-84
2023/02/02 07:15:21;;;;;;;8.20;2.00;;;4.30;99.90;;;;;;5033500;28;20052;-83
2023/02/02 07:17:46;;;;;;;10.17;2.77;;;4.30;99.90;;;;;;5027021;28;20045;-83
2023/02/02 07:20:12;;;;;;;7.03;1.87;;;4.30;99.90;;;;;;5030446;28;20055;-84
2023/02/02 07:22:47;;;;;;;11.37;2.00;;;4.30;99.90;;;;;;5031806;28;20390;-84
2023/02/02 07:25:15;;;;;;;6.57;2.17;;;4.30;99.90;;;;;;5032191;28;20017;-75
2023/02/02 07:27:43;;;;;;;10.50;2.33;;;4.30;99.90;;;;;;5038269;28;20025;-82
2023/02/02 07:30:09;;;;;;;5.37;1.90;;;4.30;99.90;;;;;;5038484;28;20080;-81
2023/02/02 07:32:35;;;;;;;4.57;1.90;;;4.40;99.90;;;;;;5047431;28;20035;-81
2023/02/02 07:35:00;;;;;;;5.60;2.30;;;4.30;99.90;;;;;;5038671;28;20107;-80
2023/02/02 07:37:28;;;;;;;6.30;2.33;;;4.30;99.90;;;;;;5041211;28;20024;-81
2023/02/02 07:39:53;;;;;;;9.30;2.80;;;4.30;99.90;;;;;;5042001;28;20247;-87
2023/02/02 07:42:19;;;;;;;7.63;2.20;;;4.40;99.90;;;;;;5031535;28;20898;-89
2023/02/02 07:44:45;;;;;;;7.67;2.40;;;4.40;99.90;;;;;;5036122;28;20072;-88
2023/02/02 07:47:13;;;;;;;10.07;2.73;;;4.40;99.90;;;;;;5035491;28;20018;-88
2023/02/02 07:49:44;;;;;;;11.57;3.03;;;4.30;99.90;;;;;;5036293;28;20014;-80
2023/02/02 07:52:12;;;;;;;7.63;2.37;;;4.40;99.90;;;;;;5030772;28;20099;-83
2023/02/02 07:54:38;;;;;;;6.37;2.30;;;4.30;99.90;;;;;;5024154;28;20389;-85
2023/02/02 07:57:03;;;;;;;6.47;2.60;;;4.30;99.90;;;;;;5024424;28;20029;-84
2023/02/02 07:59:34;;;;;;;6.53;2.40;;;4.40;99.90;;;;;;5024459;28;20521;-84
2023/02/02 08:02:02;;;;;;;7.87;2.43;;;4.40;99.90;;;;;;5021620;28;21067;-87
2023/02/02 08:04:28;;;;;;;6.63;2.30;;;4.40;99.90;;;;;;5032630;28;20543;-88
2023/02/02 08:06:53;;;;;;;9.83;2.30;;;4.40;99.90;;;;;;5034017;28;20079;-89
2023/02/02 08:09:19;;;;;;;9.30;2.40;;;4.30;99.90;;;;;;5035492;28;20033;-82
2023/02/02 08:11:44;;;;;;;8.17;2.53;;;4.40;99.90;;;;;;5027592;28;21581;-85
2023/02/02 08:14:13;;;;;;;11.27;3.00;;;4.40;99.90;;;;;;5022805;28;20077;-84
2023/02/02 08:16:38;;;;;;;9.13;2.27;;;4.40;99.90;;;;;;5024040;28;20030;-83
2023/02/02 08:19:04;;;;;;;9.63;2.97;;;4.40;99.90;;;;;;5022559;28;20029;-84
2023/02/02 08:21:35;;;;;;;8.03;2.77;;;4.40;99.90;;;;;;5023754;28;20420;-85
2023/02/02 08:24:01;;;;;;;6.47;2.40;;;4.40;99.90;;;;;;5025462;28;20053;-85
2023/02/02 08:26:29;;;;;;;7.20;2.10;;;4.40;99.90;;;;;;5024489;28;20018;-84
2023/02/02 08:28:57;;;;;;;7.60;2.50;;;4.30;99.90;;;;;;5025074;28;20034;-85
2023/02/02 08:31:26;;;;;;;6.67;2.97;;;4.40;99.90;;;;;;5026868;28;20045;-85
2023/02/02 08:33:54;;;;;;;6.00;2.13;;;4.40;99.90;;;;;;5025312;28;20762;-84
2023/02/02 08:36:24;;;;;;;6.13;2.67;;;4.60;99.90;;;;;;5024638;28;20033;-85
2023/02/02 08:38:51;;;;;;;8.23;2.30;;;4.50;99.90;;;;;;5035456;28;20030;-82
2023/02/02 08:41:19;;;;;;;8.13;2.43;;;4.50;99.90;;;;;;5032285;28;20084;-90
2023/02/02 08:43:45;;;;;;;5.67;2.50;;;4.50;99.90;;;;;;5031522;28;21546;-89
2023/02/02 08:46:16;;;;;;;8.27;2.67;;;4.40;99.90;;;;;;5030566;28;20021;-90
2023/02/02 08:48:42;;;;;;;8.87;2.50;;;4.40;99.90;;;;;;5024326;28;20041;-85
2023/02/02 08:51:13;;;;;;;8.97;2.80;;;4.30;99.90;;;;;;5038375;28;20066;-80
2023/02/02 08:53:38;;;;;;;9.67;2.70;;;4.30;99.90;;;;;;5037885;28;20167;-83
2023/02/02 08:56:10;;;;;;;7.73;2.70;;;4.30;99.90;;;;;;5040877;28;20525;-83
2023/02/02 08:58:36;;;;;;;5.93;2.40;;;4.30;99.90;;;;;;5041181;28;20029;-81
2023/02/02 09:01:08;;;;;;;6.00;2.30;;;4.30;99.90;;;;;;5041654;28;20474;-81
2023/02/02 09:03:34;;;;;;;7.07;2.53;;;4.40;99.90;;;;;;5029412;28;20551;-86
2023/02/02 09:06:04;;;;;;;10.80;2.73;;;4.50;99.90;;;;;;5021932;28;20045;-85
2023/02/02 09:08:32;;;;;;;9.10;2.67;;;4.50;99.90;;;;;;5021283;28;20053;-85
2023/02/02 09:11:12;;;;;;;8.50;2.53;;;4.50;99.90;;;;;;5020019;28;20035;-85
2023/02/02 09:13:39;;;;;;;7.33;2.57;;;4.50;99.90;;;;;;5020544;28;20482;-85
2023/02/02 09:16:08;;;;;;;6.43;2.30;;;4.60;99.90;;;;;;5021268;28;21369;-85
2023/02/02 09:18:33;;;;;;;9.13;2.80;;;4.50;99.90;;;;;;5021017;28;20034;-83
2023/02/02 09:21:03;;;;;;;6.63;2.20;;;4.50;99.90;;;;;;5019423;28;20044;-84
2023/02/02 09:23:34;;;;;;;10.73;3.90;;;4.50;99.90;;;;;;5019936;28;20074;-83
2023/02/02 09:26:17;;;;;;;6.07;2.90;;;4.40;99.90;;;;;;5019473;28;20182;-82
2023/02/02 09:28:46;;;;;;;12.70;2.60;;;4.40;99.90;;;;;;5029358;28;20044;-81
2023/02/02 09:31:12;;;;;;;5.50;2.33;;;4.40;99.90;;;;;;5036432;28;20018;-81
2023/02/02 09:33:38;;;;;;;11.73;2.40;;;4.40;99.90;;;;;;5037983;28;20052;-81
2023/02/02 09:36:09;;;;;;;9.60;2.60;;;4.40;99.90;;;;;;5039134;28;20038;-81
2023/02/02 09:38:36;;;;;;;7.87;2.50;;;4.50;99.90;;;;;;5033000;28;20028;-81
2023/02/02 09:41:14;;;;;;;8.37;2.40;;;4.50;99.90;;;;;;5034903;28;20049;-81
2023/02/02 09:43:45;;;;;;;6.70;2.40;;;4.50;99.90;;;;;;5036235;28;20100;-81
2023/02/02 09:46:43;;;;;;;6.90;2.40;;;4.50;99.90;;;;;;5039477;28;20024;-81
2023/02/02 09:49:15;;;;;;;12.03;2.90;;;4.50;99.90;;;;;;5027598;28;20036;-80
2023/02/02 09:51:48;;;;;;;7.70;2.17;;;4.50;99.90;;;;;;5038928;28;20021;-80
2023/02/02 09:54:34;;;;;;;7.97;2.50;;;4.50;99.90;;;;;;5035837;28;20018;-80
2023/02/02 09:57:11;;;;;;;11.40;3.77;;;4.60;99.90;;;;;;5035272;28;20025;-80
2023/02/02 09:59:40;;;;;;;9.80;2.03;;;4.60;99.90;;;;;;5038023;28;20377;-80
2023/02/02 10:02:16;;;;;;;7.53;2.30;;;4.60;99.90;;;;;;5035320;28;20022;-81
2023/02/02 10:04:50;;;;;;;7.10;2.00;;;4.60;99.90;;;;;;5034235;28;20113;-81
2023/02/02 10:07:37;;;;;;;7.50;2.50;;;4.70;99.90;;;;;;5035171;28;20095;-81
2023/02/02 10:10:28;;;;;;;9.27;2.90;;;4.70;99.90;;;;;;5039902;28;20095;-81
2023/02/02 10:13:31;;;;;;;7.00;2.57;;;4.70;99.90;;;;;;5018773;28;20029;-83
2023/02/02 10:16:17;;;;;;;8.07;2.23;;;4.70;99.90;;;;;;5005001;28;20036;-79
2023/02/02 10:18:58;;;;;;;;;;;4.70;99.90;;;;;;5034015;28;20033;-81
2023/02/02 10:21:35;;;;;;;9.67;2.47;;;4.70;99.90;;;;;;5033045;28;19912;-81
2023/02/02 10:24:17;;;;;;;11.13;3.53;;;4.70;99.90;;;;;;5032190;28;20025;-81
2023/02/02 10:27:16;;;;;;;9.90;2.57;;;4.70;99.90;;;;;;5034681;28;20063;-81
2023/02/02 10:29:47;;;;;;;6.27;2.27;;;4.80;99.90;;;;;;4978172;28;20040;-81
2023/02/02 10:32:27;;;;;;;8.57;2.30;;;4.90;99.90;;;;;;5036556;28;20025;-80
2023/02/02 10:34:55;;;;;;;3.97;2.13;;;4.90;99.90;;;;;;5044895;28;20017;-80
2023/02/02 10:37:37;;;;;;;7.80;2.10;;;4.90;99.90;;;;;;5043208;28;20083;-80
2023/02/02 10:40:16;;;;;;;7.20;2.00;;;4.90;99.90;;;;;;5014259;28;20026;-80
2023/02/02 10:46:02;;;;;;;5.10;2.47;;;4.90;99.90;;;;;;5037037;28;20028;-80
2023/02/02 10:48:35;;;;;;;8.00;1.90;;;4.90;99.90;;;;;;5044857;28;20423;-80
2023/02/02 10:51:09;;;;;;;6.00;2.47;;;4.90;99.90;;;;;;5042177;28;20020;-80
2023/02/02 10:53:36;;;;;;;5.63;2.20;;;4.90;99.90;;;;;;5041174;28;20048;-79
2023/02/02 10:56:13;;;;;;;7.67;2.70;;;4.90;99.90;;;;;;5039426;28;20088;-80
2023/02/02 10:58:49;;;;;;;9.53;2.33;;;4.90;99.90;;;;;;5049908;28;20074;-79
2023/02/02 11:01:16;;;;;;;4.70;2.30;;;5.00;99.90;;;;;;5039783;28;20119;-80
2023/02/02 11:03:45;;;;;;;8.40;2.53;;;5.00;99.90;;;;;;5034609;28;20488;-80
2023/02/02 11:08:58;;;;;;;4.40;1.58;;;5.10;99.90;;;;;;5041134;28;20397;-80
2023/02/02 11:11:55;;;;;;;5.53;2.00;;;5.10;99.90;;;;;;5049904;28;20424;-80
2023/02/02 11:14:36;;;;;;;6.23;3.57;;;5.00;99.90;;;;;;5028537;28;20017;-81
2023/02/02 11:17:04;;;;;;;7.03;2.70;;;5.00;99.90;;;;;;5037588;28;20025;-81
2023/02/02 11:19:32;;;;;;;5.20;1.77;;;5.00;99.90;;;;;;5040235;28;20123;-81
2023/02/02 11:22:01;;;;;;;5.73;1.77;;;5.20;99.90;;;;;;5037282;28;20374;-82
2023/02/02 11:24:46;;;;;;;7.10;1.77;;;5.20;99.90;;;;;;5041034;28;20373;-81
2023/02/02 11:27:18;;;;;;;3.90;1.80;;;5.30;99.90;;;;;;5039456;28;20018;-81
2023/02/02 11:29:50;;;;;;;6.77;1.90;;;5.30;99.90;;;;;;5035665;28;20474;-81
2023/02/02 11:32:34;;;;;;;6.40;1.93;;;5.20;99.90;;;;;;5035500;28;20107;-81
2023/02/02 11:35:05;;;;;;;6.10;1.80;;;5.10;99.90;;;;;;5043048;28;20104;-80
2023/02/02 11:37:34;;;;;;;8.23;2.10;;;5.20;99.90;;;;;;5038944;28;20528;-81
2023/02/02 11:40:40;;;;;;;7.17;2.03;;;5.20;99.90;;;;;;5038318;28;20026;-80
2023/02/02 11:43:15;;;;;;;7.20;2.33;;;5.20;99.90;;;;;;4988133;28;20030;-92
2023/02/02 11:45:48;;;;;;;6.13;1.77;;;5.20;99.90;;;;;;4978361;28;20030;-83
2023/02/02 11:48:17;;;;;;;7.13;2.30;;;5.20;99.90;;;;;;5012226;28;20397;-83
2023/02/02 11:50:54;;;;;;;7.53;2.37;;;5.20;99.90;;;;;;5037954;28;20045;-83
2023/02/02 11:53:25;;;;;;;5.43;2.10;;;5.20;99.90;;;;;;5035542;28;20425;-83
2023/02/02 11:55:54;;;;;;;6.10;2.43;;;5.10;99.90;;;;;;5036555;28;20014;-82
2023/02/02 11:58:26;;;;;;;8.13;2.33;;;5.10;99.90;;;;;;5033635;28;20108;-82
2023/02/02 12:00:58;;;;;;;6.40;1.80;;;5.10;99.90;;;;;;5034237;28;20421;-83
2023/02/02 12:03:27;;;;;;;5.60;2.07;;;5.00;99.90;;;;;;5035770;28;20020;-80
2023/02/02 12:05:52;;;;;;;8.10;2.30;;;5.00;99.90;;;;;;5026081;28;20505;-81
2023/02/02 12:08:19;;;;;;;7.43;2.07;;;5.00;99.90;;;;;;5033656;28;20083;-79
2023/02/02 12:10:58;;;;;;;7.77;2.27;;;4.90;99.90;;;;;;5035464;28;20021;-82
2023/02/02 12:13:59;;;;;;;5.20;1.90;;;4.90;99.90;;;;;;5036285;28;21545;-82
2023/02/02 12:16:45;;;;;;;9.33;2.10;;;4.80;99.90;;;;;;5035787;28;20035;-81
2023/02/02 12:19:25;;;;;;;6.90;2.20;;;4.80;99.90;;;;;;5034480;28;20032;-82
2023/02/02 12:22:13;;;;;;;6.80;2.70;;;4.80;99.90;;;;;;5038877;28;20029;-82
2023/02/02 12:24:54;;;;;;;3.80;1.90;;;4.80;99.90;;;;;;5035618;28;20037;-83
2023/02/02 12:27:28;;;;;;;5.40;2.00;;;4.80;99.90;;;;;;5036861;28;20021;-83
2023/02/02 12:30:07;;;;;;;8.05;2.83;;;4.80;99.90;;;;;;5035302;28;20108;-84
2023/02/02 12:32:44;;;;;;;9.87;2.70;;;4.80;99.90;;;;;;5038884;28;20383;-83
2023/02/02 12:35:45;;;;;;;7.30;3.13;;;4.70;99.90;;;;;;5040020;28;20017;-83
2023/02/02 12:38:34;;;;;;;8.47;2.47;;;4.70;99.90;;;;;;5038255;28;20025;-83
2023/02/02 12:41:05;;;;;;;4.67;2.00;;;4.70;99.90;;;;;;5032974;28;20394;-83
2023/02/02 12:43:44;;;;;;;6.13;2.10;;;4.60;99.90;;;;;;5037108;28;20028;-83
2023/02/02 12:46:18;;;;;;;7.80;3.10;;;4.60;99.90;;;;;;5037759;28;20029;-83
2023/02/02 12:49:05;;;;;;;5.80;2.00;;;4.60;99.90;;;;;;5038335;28;20021;-83
2023/02/02 12:52:14;;;;;;;7.93;2.40;;;4.50;99.90;;;;;;5040228;28;20103;-82
2023/02/02 12:55:14;;;;;;;7.40;2.20;;;4.50;99.90;;;;;;5038186;28;20040;-83
2023/02/02 12:58:08;;;;;;;5.43;1.80;;;4.40;99.90;;;;;;5028597;28;20484;-83
2023/02/02 13:00:56;;;;;;;6.63;2.23;;;4.30;99.90;;;;;;5040894;28;20009;-82
2023/02/02 13:03:38;;;;;;;6.40;2.73;;;4.40;99.90;;;;;;5037590;28;20366;-83
2023/02/02 13:06:40;;;;;;;6.77;2.30;;;4.50;99.90;;;;;;5038575;28;20029;-84
2023/02/02 13:09:26;;;;;;;7.23;2.33;;;4.40;99.90;;;;;;5039506;28;20033;-84
2023/02/02 13:12:05;;;;;;;7.68;2.47;;;4.30;99.90;;;;;;5040546;28;20086;-84
2023/02/02 13:14:37;;;;;;;8.50;2.83;;;4.30;99.90;;;;;;5035018;28;20021;-85
2023/02/02 13:17:16;;;;;;;9.10;2.83;;;4.30;99.90;;;;;;5046637;28;20025;-84
2023/02/02 13:19:48;;;;;;;8.40;2.83;;;4.30;99.90;;;;;;5048112;28;20021;-84
2023/02/02 13:22:33;;;;;;;6.30;2.47;;;4.20;99.90;;;;;;5034644;28;20025;-85
2023/02/02 13:25:01;;;;;;;7.00;2.22;;;4.30;99.90;;;;;;5039793;28;20497;-84
2023/02/02 13:27:29;;;;;;;6.37;2.20;;;4.30;99.90;;;;;;5040180;28;20029;-93
2023/02/02 13:30:00;;;;;;;6.13;2.40;;;4.30;99.90;;;;;;5045550;28;20108;-91
2023/02/02 13:32:37;;;;;;;7.47;2.53;;;4.20;99.90;;;;;;5044927;28;20072;-89
2023/02/02 13:35:16;;;;;;;6.67;2.30;;;4.20;99.90;;;;;;5041996;28;20053;-91